Terminal Aerodrome Forecast
Issued by NWS

Home | Current Version | Previous Version | Text Only | Print | Product List | Glossary On
Versions: 1 2 3 4 5 6 7 8 9 10 11 12 13 14 15 16 17 18 19 20 21 22 23 24 25 26 27 28 29 30
000
FTUS46 KSEW 182345
TAFHQM
TAF
KHQM 182345Z 1900/1924 28015G22KT P6SM SCT030 BKN050
      TEMPO 1900/1904 BKN025 OVC040
     FM190400 28012KT P6SM OVC025
     FM191500 26010KT P6SM OVC022
     FM192000 24014G22KT P6SM BKN030 OVC050=

USA.gov is the U.S. government's official web portal to all federal, state and local government web resources and services.